Time;durP1;ratioP1;P1;durP2;ratioP2;P2;SDS_P1;SDS_P2;PMS_P1;PMS_P2;Temp;Humidity;BMP_temperature;BMP_pressure;BME280_temperature;BME280_humidity;BME280_pressure;Samples;Min_cycle;Max_cycle;Signal;HPM_P1;HPM_P2
2022/12/25 00:01:06;;;;;;;;;70.75;56.75;;;;;14.69;61.50;99866.59;5031400;28;8860;-81
2022/12/25 00:03:47;;;;;;;;;71.25;56.75;;;;;14.65;61.51;99867.53;5033129;28;8881;-81
2022/12/25 00:06:16;;;;;;;;;65.00;53.75;;;;;14.59;61.66;99873.72;5048801;28;8935;-80
2022/12/25 00:08:45;;;;;;;;;70.00;55.25;;;;;14.58;61.70;99869.38;5031525;28;8847;-80
2022/12/25 00:11:15;;;;;;;;;74.25;60.25;;;;;14.59;61.37;99871.09;5031149;28;8935;-79
2022/12/25 00:13:47;;;;;;;;;74.00;58.25;;;;;14.51;62.03;99867.66;5013843;28;8863;-78
2022/12/25 00:16:17;;;;;;;;;61.50;50.25;;;;;14.46;62.50;99866.84;5031470;28;8839;-80
2022/12/25 00:18:47;;;;;;;;;67.50;55.75;;;;;14.46;62.04;99861.59;5028080;28;8874;-80
2022/12/25 00:21:15;;;;;;;;;68.00;54.25;;;;;14.51;62.03;99865.03;5013583;28;8878;-80
2022/12/25 00:23:44;;;;;;;;;68.75;55.75;;;;;14.52;61.60;99872.91;5032424;28;8856;-80
2022/12/25 00:26:16;;;;;;;;;56.00;44.50;;;;;14.55;61.50;99878.09;5015816;28;8871;-79
2022/12/25 00:28:46;;;;;;;;;69.75;56.25;;;;;14.57;61.30;99881.63;5029014;28;8903;-80
2022/12/25 00:31:17;;;;;;;;;73.50;59.00;;;;;14.57;61.15;99886.00;5025605;28;10084;-79
2022/12/25 00:33:48;;;;;;;;;70.00;54.25;;;;;14.58;61.32;99885.13;5008179;28;8941;-80
2022/12/25 00:36:19;;;;;;;;;63.00;49.00;;;;;14.56;61.53;99890.34;4975778;28;8856;-78
2022/12/25 00:38:48;;;;;;;;;68.00;54.25;;;;;14.53;61.44;99885.13;5011405;28;8852;-79
2022/12/25 00:42:17;;;;;;;;;67.50;52.75;;;;;14.55;61.40;99892.97;5027000;28;8954;-79
2022/12/25 00:44:13;;;;;;;;;67.25;52.50;;;;;14.53;61.72;99886.88;4978369;28;8853;-79
2022/12/25 00:46:42;;;;;;;;;66.25;54.75;;;;;14.45;61.91;99878.25;5006404;28;8908;-80
2022/12/25 00:49:12;;;;;;;;;65.75;52.50;;;;;14.38;62.11;99883.53;4991384;28;8878;-79
2022/12/25 00:51:40;;;;;;;;;66.50;53.00;;;;;14.41;62.29;99890.53;5014794;28;8964;-81
2022/12/25 00:54:09;;;;;;;;;64.75;53.00;;;;;14.45;62.05;99897.47;4991196;28;8854;-80
2022/12/25 00:56:38;;;;;;;;;69.25;53.00;;;;;14.48;62.25;99905.31;5008012;28;8854;-80
2022/12/25 00:59:07;;;;;;;;;66.25;52.25;;;;;14.45;62.84;99907.09;5007555;28;8851;-80
2022/12/25 01:01:38;;;;;;;;;60.50;49.00;;;;;14.37;63.55;99908.03;4991632;28;8885;-80
2022/12/25 01:04:08;;;;;;;;;64.50;52.50;;;;;14.49;63.10;99911.44;4994280;28;8867;-78
2022/12/25 01:06:36;;;;;;;;;62.25;52.00;;;;;14.55;62.92;99921.84;5060896;28;8960;-80
2022/12/25 01:11:51;;;;;;;;;62.50;48.25;;;;;14.68;62.74;99920.84;5027236;28;9011;-82
2022/12/25 01:14:20;;;;;;;;;63.25;51.00;;;;;14.72;62.28;99927.81;5024262;28;8935;-79
2022/12/25 01:16:50;;;;;;;;;67.00;54.75;;;;;14.79;62.56;99920.75;5024714;28;8854;-79
2022/12/25 01:19:18;;;;;;;;;69.75;54.50;;;;;14.82;62.12;99926.84;5023836;28;8839;-79
2022/12/25 01:21:47;;;;;;;;;66.75;51.25;;;;;14.84;62.29;99921.56;5009551;28;9018;-79
2022/12/25 01:24:16;;;;;;;;;62.75;49.50;;;;;14.90;62.11;99918.88;5040640;28;8855;-80
2022/12/25 01:26:44;;;;;;;;;72.50;58.00;;;;;14.95;61.79;99914.44;4965298;28;8888;-81
2022/12/25 01:29:13;;;;;;;;;72.25;55.50;;;;;14.98;61.58;99908.25;5007598;28;8870;-79
2022/12/25 01:31:41;;;;;;;;;65.75;53.50;;;;;14.99;61.29;99905.63;4958880;28;8866;-79
2022/12/25 01:34:12;;;;;;;;;68.50;55.00;;;;;14.99;61.37;99892.50;5010262;28;9634;-78
2022/12/25 01:36:40;;;;;;;;;68.00;55.00;;;;;15.00;61.13;99885.47;5023944;28;8896;-80
2022/12/25 01:39:09;;;;;;;;;67.00;53.25;;;;;14.97;61.06;99883.75;5023856;28;8866;-81
2022/12/25 01:41:37;;;;;;;;;69.75;56.25;;;;;14.96;60.72;99889.03;5007265;28;8858;-78
2022/12/25 01:44:27;;;;;;;;;59.50;46.50;;;;;14.93;60.67;99889.94;5023420;28;8951;-79
2022/12/25 01:46:56;;;;;;;;;70.25;54.75;;;;;14.89;60.84;99892.63;4991117;28;8854;-79
2022/12/25 01:49:26;;;;;;;;;62.75;51.00;;;;;14.85;60.76;99896.19;4958273;28;8885;-79
2022/12/25 01:51:59;;;;;;;;;64.25;52.75;;;;;14.86;60.91;99890.03;5007432;28;8863;-79
2022/12/25 01:54:33;;;;;;;;;65.50;53.75;;;;;14.86;60.73;99890.03;5025921;28;9601;-79
2022/12/25 01:57:04;;;;;;;;;67.75;54.75;;;;;14.78;60.85;99893.63;5009644;28;8848;-78
2022/12/25 01:59:33;;;;;;;;;63.25;51.25;;;;;14.73;60.55;99886.69;5025438;28;8863;-80
2022/12/25 02:02:03;;;;;;;;;67.00;54.25;;;;;14.67;60.98;99885.00;5025541;28;8966;-80
2022/12/25 02:04:41;;;;;;;;;61.00;50.75;;;;;14.71;60.81;99897.22;5025922;28;8860;-79
2022/12/25 02:07:14;;;;;;;;;58.25;48.00;;;;;14.60;61.22;99901.72;5008674;28;8848;-79
2022/12/25 02:09:46;;;;;;;;;65.50;51.00;;;;;14.48;61.36;99902.69;5009181;28;8863;-79
2022/12/25 02:12:18;;;;;;;;;61.25;50.75;;;;;14.50;61.41;99916.66;5042968;28;8872;-80
2022/12/25 02:14:48;;;;;;;;;63.75;51.75;;;;;14.47;61.46;99916.69;5035213;28;8882;-80
2022/12/25 02:17:25;;;;;;;;;67.75;51.00;;;;;14.53;61.55;99919.22;5026803;28;9651;-79
2022/12/25 02:20:30;;;;;;;;;62.50;51.25;;;;;14.58;61.34;99927.13;5026157;28;8861;-78
2022/12/25 02:23:13;;;;;;;;;59.75;50.50;;;;;14.53;61.29;99928.88;4977943;28;8993;-79
2022/12/25 02:26:02;;;;;;;;;62.50;51.50;;;;;14.54;61.28;99928.88;4970852;28;8924;-80
2022/12/25 02:28:39;;;;;;;;;59.00;50.00;;;;;14.48;61.26;99928.03;4987289;28;8851;-80
2022/12/25 02:31:17;;;;;;;;;65.25;52.00;;;;;14.36;61.65;99944.78;5006050;28;8858;-79
2022/12/25 02:34:05;;;;;;;;;58.50;46.50;;;;;14.35;61.75;99938.69;4989715;28;8974;-81
2022/12/25 02:36:40;;;;;;;;;65.50;52.00;;;;;14.33;61.72;99947.44;5005536;28;9911;-80
2022/12/25 02:42:11;;;;;;;;;61.00;50.50;;;;;14.30;61.72;99958.81;5009194;28;9050;-79
2022/12/25 03:07:18;;;;;;;;;61.00;47.50;;;;;14.06;64.93;99961.66;4969922;28;8891;-79
2022/12/25 03:12:46;;;;;;;;;60.00;49.50;;;;;14.22;64.65;99958.03;4962629;28;8860;-79
2022/12/25 03:18:08;;;;;;;;;60.75;49.75;;;;;14.54;63.56;99967.38;4900154;29;8992;-81
2022/12/25 03:29:02;;;;;;;;;57.50;47.75;;;;;14.89;61.77;99953.88;4914922;29;8852;-78
2022/12/25 03:31:38;;;;;;;;;58.25;49.00;;;;;14.99;61.88;99954.66;4899806;29;9613;-80
2022/12/25 04:36:53;;;;;;;;;56.00;45.75;;;;;15.05;60.63;99998.34;4974259;28;8883;-79
2022/12/25 04:39:24;;;;;;;;;53.50;44.25;;;;;14.78;61.14;99993.41;4944645;28;8934;-79
2022/12/25 04:41:52;;;;;;;;;53.75;45.75;;;;;14.60;61.92;100011.94;4939191;28;8972;-80
2022/12/25 04:44:21;;;;;;;;;54.25;46.00;;;;;14.74;61.50;100015.28;4972612;28;8921;-78
2022/12/25 04:46:49;;;;;;;;;57.25;47.00;;;;;14.82;61.56;100018.72;4988972;28;8878;-81
2022/12/25 04:49:18;;;;;;;;;56.50;46.00;;;;;14.35;63.07;100017.38;4990626;28;8881;-79
2022/12/25 04:51:47;;;;;;;;;55.25;47.25;;;;;14.54;62.54;100012.84;4974145;28;8862;-80
2022/12/25 04:54:16;;;;;;;;;59.25;48.75;;;;;14.64;62.13;100012.78;4940681;28;8870;-78
2022/12/25 04:56:45;;;;;;;;;60.50;49.00;;;;;14.78;61.86;100018.75;4988064;28;9604;-81
2022/12/25 04:59:14;;;;;;;;;54.50;43.50;;;;;14.84;61.50;100016.09;5007596;28;8884;-79
2022/12/25 05:01:43;;;;;;;;;57.00;47.00;;;;;14.89;61.24;100013.41;5006750;28;8901;-81
2022/12/25 05:04:12;;;;;;;;;47.75;41.25;;;;;14.92;60.99;100014.25;5009124;28;8858;-80
2022/12/25 05:06:40;;;;;;;;;60.00;49.50;;;;;14.98;61.15;100014.16;5008894;28;8854;-79
2022/12/25 05:09:09;;;;;;;;;57.75;46.25;;;;;15.04;60.74;100017.63;4958487;28;8854;-80
2022/12/25 05:11:38;;;;;;;;;61.25;48.50;;;;;15.05;60.44;100021.97;5009501;28;8858;-80
2022/12/25 05:14:08;;;;;;;;;57.75;47.75;;;;;15.06;60.71;100021.97;5029333;28;8867;-81
2022/12/25 05:16:37;;;;;;;;;61.75;47.75;;;;;15.10;60.26;100018.41;4994515;28;8868;-80
2022/12/25 05:19:06;;;;;;;;;55.50;45.25;;;;;15.12;60.08;100013.13;5027978;28;8882;-78
2022/12/25 05:21:34;;;;;;;;;60.75;47.75;;;;;15.08;60.11;100019.31;5028535;28;8998;-80
2022/12/25 05:24:03;;;;;;;;;60.25;49.00;;;;;15.04;60.25;100028.13;5024922;28;8862;-82
2022/12/25 05:26:31;;;;;;;;;61.75;49.50;;;;;15.00;59.97;100029.91;5008503;28;8858;-80
2022/12/25 05:29:00;;;;;;;;;56.75;46.25;;;;;14.97;59.82;100025.56;4994289;28;9626;-79
2022/12/25 05:31:30;;;;;;;;;55.00;44.75;;;;;14.94;59.89;100022.13;5012001;28;8982;-80
2022/12/25 05:33:59;;;;;;;;;56.25;45.75;;;;;14.87;59.96;100026.53;5034269;28;8883;-80
2022/12/25 05:36:28;;;;;;;;;56.25;46.75;;;;;14.81;60.01;100026.63;5051492;28;8871;-79
2022/12/25 05:38:56;;;;;;;;;58.25;46.75;;;;;14.80;59.89;100043.25;4979029;28;8834;-79
2022/12/25 05:41:25;;;;;;;;;59.25;48.00;;;;;14.72;60.02;100047.69;4969465;28;8866;-78
2022/12/25 05:44:02;;;;;;;;;58.75;49.00;;;;;14.67;60.37;100055.63;4986815;28;8878;-81
2022/12/25 05:46:32;;;;;;;;;55.75;45.00;;;;;14.62;60.01;100063.53;4970341;28;8880;-79
2022/12/25 05:49:00;;;;;;;;;62.50;50.50;;;;;14.61;60.13;100055.66;4953898;28;8843;-79
2022/12/25 05:51:29;;;;;;;;;59.00;48.25;;;;;14.60;60.20;100061.81;4941805;28;8988;-80
2022/12/25 05:53:58;;;;;;;;;62.75;49.00;;;;;14.55;60.15;100060.94;4975550;28;8881;-80
2022/12/25 05:56:27;;;;;;;;;58.50;49.00;;;;;14.54;60.16;100056.59;4975251;28;8886;-79
2022/12/25 05:58:56;;;;;;;;;64.75;52.50;;;;;14.55;60.48;100051.31;4990852;28;8921;-79
2022/12/25 06:01:27;;;;;;;;;57.25;46.75;;;;;14.51;60.35;100044.34;4974606;28;8889;-77
2022/12/25 06:03:57;;;;;;;;;58.00;47.50;;;;;14.49;60.27;100045.25;4957871;28;8842;-81
2022/12/25 06:06:26;;;;;;;;;55.75;46.00;;;;;14.46;60.17;100047.91;4972648;28;8900;-78
2022/12/25 06:08:55;;;;;;;;;55.00;46.50;;;;;14.41;60.14;100047.94;4970579;28;8850;-79
2022/12/25 06:11:24;;;;;;;;;63.00;47.50;;;;;14.36;60.66;100054.97;5043546;28;9013;-79
2022/12/25 06:13:53;;;;;;;;;60.75;50.00;;;;;14.37;60.44;100054.97;5028128;28;8856;-82
2022/12/25 06:16:21;;;;;;;;;74.75;59.00;;;;;14.28;60.70;100052.41;5009718;28;8844;-80
2022/12/25 06:18:52;;;;;;;;;80.00;63.33;;;;;14.29;60.91;100050.66;5010381;28;8926;-79
2022/12/25 06:21:22;;;;;;;;;66.50;53.50;;;;;14.12;61.63;100056.91;5013619;28;9223;-79
2022/12/25 06:23:51;;;;;;;;;63.50;52.50;;;;;14.14;61.49;100063.00;5028306;28;8943;-77
2022/12/25 06:26:20;;;;;;;;;66.25;54.75;;;;;14.18;61.38;100063.88;5012835;28;8862;-80
2022/12/25 06:28:49;;;;;;;;;58.50;48.25;;;;;14.24;61.17;100066.44;5044098;28;8936;-79
2022/12/25 06:31:19;;;;;;;;;67.50;54.75;;;;;14.34;61.22;100067.25;5010706;28;9592;-78
2022/12/25 06:33:49;;;;;;;;;66.50;53.75;;;;;14.45;61.17;100072.41;5023577;28;8877;-81
2022/12/25 06:36:20;;;;;;;;;67.25;52.25;;;;;14.53;60.86;100057.47;4994748;28;8866;-79
2022/12/25 06:38:51;;;;;;;;;60.00;49.00;;;;;14.59;61.38;100060.97;5010647;28;8983;-79
2022/12/25 06:41:21;;;;;;;;;66.25;52.25;;;;;14.59;61.07;100073.19;5010892;28;8873;-81
2022/12/25 06:43:52;;;;;;;;;67.00;53.75;;;;;14.68;60.84;100070.50;5010261;28;8893;-79
2022/12/25 06:46:22;;;;;;;;;65.50;52.00;;;;;14.76;60.46;100070.41;5010560;28;8846;-78
2022/12/25 06:48:51;;;;;;;;;64.50;51.75;;;;;14.85;60.52;100072.09;5036387;28;8877;-81
2022/12/25 06:51:23;;;;;;;;;66.50;53.75;;;;;14.85;60.36;100072.09;5013907;28;8852;-80
2022/12/25 06:53:54;;;;;;;;;67.25;54.25;;;;;14.89;60.63;100085.16;5013554;28;8859;-79
2022/12/25 06:56:25;;;;;;;;;68.00;56.25;;;;;14.95;60.58;100086.88;5013755;28;8848;-79
2022/12/25 06:58:56;;;;;;;;;73.50;55.75;;;;;14.96;60.30;100084.22;5023833;28;8854;-79
2022/12/25 07:01:26;;;;;;;;;65.25;53.25;;;;;15.01;60.31;100092.09;4994438;28;8866;-80
2022/12/25 07:03:58;;;;;;;;;66.75;54.25;;;;;15.08;60.30;100093.72;5011439;28;8962;-80
2022/12/25 07:06:27;;;;;;;;;64.75;52.50;;;;;15.12;60.11;100094.56;5010483;28;9702;-79
2022/12/25 07:08:57;;;;;;;;;62.25;49.75;;;;;15.11;59.98;100096.34;4976967;28;8890;-78
2022/12/25 07:11:26;;;;;;;;;18.75;10.75;;;;;15.17;60.10;100104.16;5027974;28;8851;-80
2022/12/25 07:13:55;;;;;;;;;57.50;47.00;;;;;15.21;59.73;100112.88;4995314;28;8862;-82
2022/12/25 07:16:23;;;;;;;;;64.00;52.50;;;;;15.26;59.59;100102.34;5011226;28;8931;-81
2022/12/25 07:18:52;;;;;;;;;66.50;54.50;;;;;15.31;59.21;100113.66;5010052;28;8870;-79
2022/12/25 07:21:21;;;;;;;;;69.50;55.75;;;;;15.36;59.48;100117.97;5009391;28;8865;-79
2022/12/25 07:23:50;;;;;;;;;69.25;55.00;;;;;15.41;59.17;100125.81;5011420;28;8885;-80
2022/12/25 07:26:20;;;;;;;;;67.00;54.75;;;;;15.44;58.97;100132.78;4995130;28;8866;-81
2022/12/25 07:28:48;;;;;;;;;71.00;56.25;;;;;15.48;58.97;100139.75;5011987;28;8909;-80
2022/12/25 07:31:18;;;;;;;;;67.00;54.00;;;;;15.50;59.37;100146.75;5007206;28;8947;-80
2022/12/25 07:33:48;;;;;;;;;73.25;58.25;;;;;15.53;59.10;100144.06;5028245;28;8855;-80
2022/12/25 07:36:16;;;;;;;;;74.33;59.00;;;;;15.55;58.81;100147.53;5012550;28;8862;-81
2022/12/25 07:38:49;;;;;;;;;77.33;60.33;;;;;15.54;59.36;100140.56;5031287;28;9186;-80
2022/12/25 07:41:17;;;;;;;;;71.00;56.75;;;;;15.58;59.35;100137.00;5032858;28;9119;-81
2022/12/25 07:43:51;;;;;;;;;65.50;53.75;;;;;15.64;59.22;100137.84;5037249;28;8882;-81
2022/12/25 07:46:20;;;;;;;;;71.75;58.25;;;;;15.62;58.98;100136.97;5031607;28;8952;-80
2022/12/25 07:48:49;;;;;;;;;66.75;55.75;;;;;15.67;58.79;100128.16;5017060;28;8848;-80
2022/12/25 07:51:17;;;;;;;;;76.25;59.25;;;;;15.65;58.80;100127.31;5031788;28;8856;-80
2022/12/25 07:53:46;;;;;;;;;70.50;55.50;;;;;15.63;59.12;100130.81;5030262;28;9683;-80
2022/12/25 07:56:17;;;;;;;;;70.50;56.50;;;;;15.62;59.07;100136.97;5043525;28;8972;-81
2022/12/25 07:58:47;;;;;;;;;75.50;58.25;;;;;15.68;59.29;100152.69;5009904;28;8874;-80
2022/12/25 08:01:19;;;;;;;;;76.25;59.75;;;;;15.76;59.05;100157.00;5043823;28;8850;-80
2022/12/25 08:03:50;;;;;;;;;89.00;77.75;;;;;15.80;59.47;100152.53;5010473;28;8870;-81
2022/12/25 08:06:19;;;;;;;;;70.75;57.25;;;;;15.88;59.27;100150.72;4992020;28;9928;-80
2022/12/25 08:08:48;;;;;;;;;60.00;49.00;;;;;15.93;58.55;100142.75;5025994;28;8919;-80
2022/12/25 08:11:17;;;;;;;;;16.75;15.25;;;;;15.91;59.00;100141.91;4992333;28;8862;-80
2022/12/25 08:13:45;;;;;;;;;70.75;55.75;;;;;15.90;59.15;100133.16;5009174;28;8876;-80
2022/12/25 08:16:14;;;;;;;;;78.33;60.67;;;;;15.88;58.56;100139.28;5008825;28;8886;-80
2022/12/25 08:18:44;;;;;;;;;76.33;59.67;;;;;15.97;58.90;100134.81;5009127;28;8942;-80
2022/12/25 08:21:15;;;;;;;;;77.50;60.00;;;;;15.59;59.68;100140.50;5008916;28;9040;-80
2022/12/25 08:23:46;;;;;;;;;72.00;58.00;;;;;15.78;59.49;100142.06;4993025;28;8858;-82
2022/12/25 08:26:17;;;;;;;;;74.00;58.33;;;;;15.81;59.27;100149.03;4995140;28;8871;-80
2022/12/25 08:28:46;;;;;;;;;67.33;52.33;;;;;15.99;59.57;100155.81;5012637;28;8949;-80
2022/12/25 08:31:17;;;;;;;;;84.25;71.25;;;;;16.18;58.87;100157.34;5016660;28;8962;-83
2022/12/25 08:33:49;;;;;;;;;76.00;59.33;;;;;16.45;58.25;100154.34;4992590;28;10199;-81
2022/12/25 08:36:18;;;;;;;;;73.00;57.50;;;;;16.45;58.42;100152.56;5046307;28;9448;-81
2022/12/25 08:38:48;;;;;;;;;77.33;61.67;;;;;16.55;57.93;100161.19;5013794;28;8846;-80
2022/12/25 08:41:16;;;;;;;;;69.67;55.00;;;;;16.59;57.56;100157.59;5030161;28;9095;-80
2022/12/25 08:43:46;;;;;;;;;68.50;55.00;;;;;16.50;58.35;100166.53;5039879;28;9342;-80
2022/12/25 08:46:15;;;;;;;;;64.25;52.00;;;;;16.55;57.71;100166.44;4945951;28;8862;-80
2022/12/25 08:48:44;;;;;;;;;65.75;52.50;;;;;16.62;57.09;100159.34;4951594;28;8849;-81
2022/12/25 08:51:17;;;;;;;;;68.00;52.50;;;;;16.72;57.58;100164.41;4948146;28;8839;-79
2022/12/25 08:53:48;;;;;;;;;68.50;55.75;;;;;16.67;57.73;100163.66;4948182;28;8858;-79
2022/12/25 08:56:18;;;;;;;;;64.50;51.50;;;;;16.66;57.49;100156.63;4948157;28;8870;-82
2022/12/25 08:58:47;;;;;;;;;71.50;57.00;;;;;16.76;57.47;100159.97;4948207;28;9660;-81
2022/12/25 09:01:15;;;;;;;;;63.00;51.25;;;;;16.92;57.01;100160.66;4946973;28;8862;-79
2022/12/25 09:03:44;;;;;;;;;77.00;59.50;;;;;17.08;56.70;100167.38;4949270;28;8854;-80
2022/12/25 09:06:16;;;;;;;;;80.25;66.75;;;;;17.23;56.66;100178.56;4949170;28;8855;-79
2022/12/25 09:08:45;;;;;;;;;60.25;49.25;;;;;16.86;55.57;100180.06;4894391;29;10442;-80
2022/12/25 09:11:19;;;;;;;;;64.50;52.00;;;;;16.48;56.76;100188.50;4910302;29;8871;-80
2022/12/25 09:13:48;;;;;;;;;64.50;52.00;;;;;16.85;56.30;100180.94;4848454;29;9738;-80
2022/12/25 09:16:19;;;;;;;;;63.75;50.50;;;;;17.17;55.64;100181.31;4873469;29;10016;-79
2022/12/25 09:18:49;;;;;;;;;64.50;53.25;;;;;17.44;55.72;100179.94;4929574;28;8876;-80
2022/12/25 09:21:19;;;;;;;;;79.00;66.75;;;;;17.07;55.61;100194.66;4936614;28;9025;-80
2022/12/25 09:23:48;;;;;;;;;78.25;65.75;;;;;16.62;57.29;100191.81;4973795;28;9740;-81
2022/12/25 09:26:18;;;;;;;;;74.33;58.33;;;;;17.03;56.56;100197.34;4973598;28;10324;-79
2022/12/25 09:28:47;;;;;;;;;76.00;59.25;;;;;17.37;56.22;100194.13;4989842;28;8957;-81
2022/12/25 09:31:21;;;;;;;;;71.50;55.25;;;;;17.63;55.41;100189.22;5007464;28;8981;-79
2022/12/25 09:33:51;;;;;;;;;69.50;56.00;;;;;17.79;55.04;100195.09;5009612;28;8862;-79
2022/12/25 09:36:22;;;;;;;;;70.67;57.00;;;;;17.10;55.97;100199.84;5005717;28;8904;-80
2022/12/25 09:38:51;;;;;;;;;64.75;52.25;;;;;17.23;55.57;100197.88;4974817;28;8957;-84
2022/12/25 09:41:28;;;;;;;;;112.00;105.00;;;;;17.25;55.40;100187.31;5027543;28;9467;-79
2022/12/25 09:44:04;;;;;;;;;64.75;50.75;;;;;16.47;56.25;100203.44;5026878;28;11002;-82
2022/12/25 09:46:40;;;;;;;;;61.50;51.00;;;;;16.61;56.64;100200.59;5027520;28;8864;-82
2022/12/25 09:49:18;;;;;;;;;59.00;49.00;;;;;16.88;55.28;100201.97;5033954;28;8850;-81
2022/12/25 09:51:55;;;;;;;;;62.25;49.00;;;;;16.92;54.58;100205.44;4982839;28;8847;-79
2022/12/25 09:54:36;;;;;;;;;55.50;46.00;;;;;17.18;53.89;100206.75;5048343;28;8892;-83
2022/12/25 09:57:06;;;;;;;;;60.25;49.00;;;;;17.43;54.12;100202.81;5034642;28;8856;-80
2022/12/25 09:59:35;;;;;;;;;63.25;51.75;;;;;17.61;53.60;100204.22;5045005;28;8865;-81
2022/12/25 10:02:27;;;;;;;;;63.50;50.50;;;;;17.96;53.39;100204.47;5028641;28;8853;-83
2022/12/25 10:05:20;;;;;;;;;67.00;54.25;;;;;18.16;53.35;100206.69;4979539;28;8845;-79
2022/12/25 10:08:04;;;;;;;;;69.50;52.75;;;;;18.40;52.78;100203.53;5044000;28;9599;-79
2022/12/25 10:10:48;;;;;;;;;44.50;39.25;;;;;18.62;52.25;100198.63;5029009;28;9699;-79
2022/12/25 10:13:35;;;;;;;;;75.00;60.67;;;;;18.79;51.21;100197.34;5012704;28;8845;-84
2022/12/25 10:16:17;;;;;;;;;60.75;50.25;;;;;18.93;50.92;100200.56;5061794;28;9247;-83
2022/12/25 10:19:04;;;;;;;;;57.75;48.50;;;;;19.14;50.28;100207.09;5029073;28;9007;-80
2022/12/25 10:21:33;;;;;;;;;54.25;45.00;;;;;19.13;49.87;100202.75;5023389;28;8941;-82
2022/12/25 10:24:11;;;;;;;;;57.50;46.75;;;;;19.24;49.41;100194.50;5026103;28;8847;-81
2022/12/25 10:26:40;;;;;;;;;53.25;43.00;;;;;19.18;48.74;100198.19;5059949;28;8871;-81
2022/12/25 10:29:13;;;;;;;;;55.25;46.75;;;;;19.32;48.95;100197.84;5010222;28;8852;-81
2022/12/25 10:31:46;;;;;;;;;57.00;46.50;;;;;19.33;48.19;100199.56;5043033;28;9621;-81
2022/12/25 10:34:16;;;;;;;;;62.25;49.25;;;;;19.40;48.04;100195.00;5002060;28;8862;-81
2022/12/25 10:36:46;;;;;;;;;64.25;50.25;;;;;19.47;47.82;100197.44;5008085;28;8933;-82
2022/12/25 10:39:18;;;;;;;;;62.75;50.00;;;;;19.57;46.86;100192.75;5006559;28;8939;-82
2022/12/25 10:42:04;;;;;;;;;70.25;55.75;;;;;19.78;46.59;100188.69;5011209;28;8950;-82
2022/12/25 10:44:33;;;;;;;;;68.75;55.00;;;;;19.71;46.67;100189.72;5010653;28;8897;-83
2022/12/25 10:47:04;;;;;;;;;60.25;48.00;;;;;19.79;45.95;100190.44;5012046;28;8884;-82
2022/12/25 10:49:35;;;;;;;;;58.00;47.00;;;;;19.83;45.50;100189.44;5028176;28;9621;-81
2022/12/25 10:52:18;;;;;;;;;54.00;45.50;;;;;19.89;45.22;100187.53;5027788;28;8871;-81
2022/12/25 10:54:48;;;;;;;;;77.25;64.75;;;;;19.98;44.49;100174.00;5010116;28;8840;-82
2022/12/25 10:57:20;;;;;;;;;51.50;40.50;;;;;20.02;42.99;100167.72;5038123;28;9401;-81
2022/12/25 10:59:51;;;;;;;;;49.25;39.25;;;;;20.01;42.30;100165.97;4990437;28;8877;-82
2022/12/25 11:02:24;;;;;;;;;44.75;37.00;;;;;20.05;41.77;100164.97;5005743;28;8858;-82
2022/12/25 11:05:02;;;;;;;;;65.00;50.00;;;;;20.15;41.44;100169.09;4989074;28;8850;-80
2022/12/25 11:07:33;;;;;;;;;59.25;49.00;;;;;20.07;41.18;100163.13;5026058;28;8834;-83
2022/12/25 11:10:15;;;;;;;;;45.50;39.00;;;;;20.14;40.63;100169.13;4996419;28;8877;-83
2022/12/25 11:12:46;;;;;;;;;47.00;38.25;;;;;20.16;41.25;100160.22;5027369;28;8880;-82
2022/12/25 11:15:33;;;;;;;;;44.50;38.75;;;;;20.32;40.60;100158.00;4995840;28;8874;-82
2022/12/25 11:18:03;;;;;;;;;36.60;32.00;;;;;20.09;39.16;100158.66;5028661;28;8844;-79
2022/12/25 11:20:32;;;;;;;;;49.00;42.00;;;;;20.10;39.42;100152.47;5029367;28;8860;-83
2022/12/25 11:23:01;;;;;;;;;47.25;40.00;;;;;20.13;40.04;100156.78;5017332;28;8875;-82
2022/12/25 11:25:31;;;;;;;;;51.75;42.25;;;;;20.11;39.86;100151.53;4952971;28;9010;-83
2022/12/25 11:28:02;;;;;;;;;47.50;39.25;;;;;20.12;40.04;100153.28;4953150;28;9609;-85
2022/12/25 11:30:33;;;;;;;;;17.20;17.00;;;;;20.03;38.56;100145.63;4966205;28;9023;-83
2022/12/25 11:33:06;;;;;;;;;29.20;24.80;;;;;20.04;38.70;100150.00;4955474;28;8889;-81
2022/12/25 11:35:51;;;;;;;;;30.20;25.80;;;;;20.14;38.94;100147.94;4987490;28;8884;-80
2022/12/25 11:38:20;;;;;;;;;31.40;27.40;;;;;19.99;38.78;100136.91;5005147;28;8909;-82
2022/12/25 11:40:54;;;;;;;;;32.40;30.60;;;;;20.02;38.87;100139.47;4940264;28;9075;-82
2022/12/25 11:43:27;;;;;;;;;39.50;35.00;;;;;19.98;39.54;100135.19;4988129;28;8873;-80
2022/12/25 11:46:04;;;;;;;;;44.00;37.50;;;;;20.02;39.71;100141.25;4981428;28;9658;-83
2022/12/25 11:48:39;;;;;;;;;52.75;44.00;;;;;19.98;39.87;100139.56;4972317;28;8849;-80
2022/12/25 11:51:09;;;;;;;;;58.50;47.00;;;;;19.87;40.14;100134.63;4968709;28;8864;-82
2022/12/25 11:53:43;;;;;;;;;69.75;55.00;;;;;19.85;40.64;100137.31;4952572;28;8867;-82
2022/12/25 11:56:16;;;;;;;;;76.75;64.00;;;;;19.76;41.57;100132.28;4953490;28;9633;-82
2022/12/25 11:58:49;;;;;;;;;65.50;52.50;;;;;19.56;41.41;100131.94;4978772;28;8878;-83
2022/12/25 12:01:26;;;;;;;;;61.25;49.25;;;;;19.51;41.64;100140.03;4994624;28;8852;-81
2022/12/25 12:03:57;;;;;;;;;57.00;47.50;;;;;19.46;41.58;100133.97;5009731;28;8851;-82
2022/12/25 12:06:33;;;;;;;;;66.00;51.25;;;;;19.44;41.49;100133.16;5027486;28;8873;-80
2022/12/25 12:09:17;;;;;;;;;65.75;52.75;;;;;19.59;41.40;100126.56;5027273;28;8916;-79
2022/12/25 12:11:58;;;;;;;;;62.00;49.25;;;;;19.61;41.50;100128.25;5027550;28;8936;-81
2022/12/25 12:14:42;;;;;;;;;65.75;51.75;;;;;19.52;41.88;100128.50;5010862;28;8852;-81
2022/12/25 12:17:13;;;;;;;;;60.00;49.50;;;;;19.33;42.13;100133.44;5010689;28;8855;-80
2022/12/25 12:19:42;;;;;;;;;58.75;48.50;;;;;19.32;42.11;100136.13;5010015;28;8946;-83
2022/12/25 12:22:18;;;;;;;;;60.25;49.00;;;;;19.43;41.92;100139.34;5025578;28;8867;-81
2022/12/25 12:24:53;;;;;;;;;60.50;49.00;;;;;19.41;42.05;100136.78;5015665;28;8861;-82
2022/12/25 12:27:36;;;;;;;;;55.00;45.50;;;;;19.41;42.04;100134.13;5008269;28;8870;-82
2022/12/25 12:30:22;;;;;;;;;53.75;44.75;;;;;19.40;42.28;100131.50;5033445;28;8863;-83
2022/12/25 12:32:52;;;;;;;;;52.00;44.00;;;;;19.33;41.94;100127.28;5046643;28;8855;-81
2022/12/25 12:35:26;;;;;;;;;47.25;40.75;;;;;19.33;41.89;100133.44;5026255;28;8852;-79
2022/12/25 12:37:58;;;;;;;;;52.75;42.75;;;;;19.34;41.62;100121.97;5039018;28;8920;-79
2022/12/25 12:40:34;;;;;;;;;68.00;52.00;;;;;19.39;41.47;100119.19;5007245;28;8904;-80
2022/12/25 12:43:06;;;;;;;;;58.75;47.00;;;;;19.27;41.63;100123.03;5020929;28;8867;-82
2022/12/25 12:45:37;;;;;;;;;53.50;43.25;;;;;19.27;41.48;100120.41;5039612;28;8854;-78
2022/12/25 12:48:14;;;;;;;;;51.50;42.00;;;;;19.39;41.22;100109.47;5048544;28;8885;-79
2022/12/25 12:50:43;;;;;;;;;55.75;44.00;;;;;19.29;40.89;100116.78;5022684;28;8855;-78
2022/12/25 12:53:29;;;;;;;;;54.50;42.75;;;;;19.49;40.91;100112.75;5053279;28;8914;-80
2022/12/25 12:56:09;;;;;;;;;54.50;44.25;;;;;19.42;41.08;100119.97;5021243;28;8868;-80
2022/12/25 12:58:45;;;;;;;;;59.50;46.75;;;;;19.31;41.16;100116.75;5007886;28;8867;-80
2022/12/25 13:01:26;;;;;;;;;57.25;47.00;;;;;19.40;41.34;100108.56;5009154;28;8997;-77
2022/12/25 13:04:32;;;;;;;;;55.50;45.50;;;;;19.42;41.45;100122.63;5002510;28;8882;-82
2022/12/25 13:07:13;;;;;;;;;58.25;45.50;;;;;19.29;41.47;100116.78;4991681;28;8908;-79
2022/12/25 13:09:56;;;;;;;;;54.75;45.50;;;;;19.18;41.59;100118.84;4991814;28;8906;-80
2022/12/25 13:12:25;;;;;;;;;51.25;43.00;;;;;19.15;41.65;100120.72;5015866;28;9015;-81
2022/12/25 13:14:55;;;;;;;;;39.75;35.00;;;;;19.19;41.50;100122.41;5011454;28;8865;-81
2022/12/25 13:17:27;;;;;;;;;45.50;36.00;;;;;19.07;41.16;100115.63;5042843;28;8936;-80
2022/12/25 13:19:58;;;;;;;;;35.20;32.80;;;;;19.14;41.01;100113.72;5039083;28;8862;-80
2022/12/25 13:22:31;;;;;;;;;38.80;32.60;;;;;19.12;40.99;100115.53;5013611;28;8887;-80
2022/12/25 13:25:03;;;;;;;;;36.60;31.80;;;;;19.07;40.87;100110.34;5008880;28;8875;-77
2022/12/25 13:27:33;;;;;;;;;15.75;14.50;;;;;19.14;40.91;100111.06;5010886;28;8843;-78